This is the latest recevied weather packets stored in our database for station/object KF5JED-13. If no packets are shown the sender has not sent any weather packets the latest 10 day(s).
| Time | Temp. | Humidity | Pressure | Rain* | Wind** | Luminosity | Snow |
|---|---|---|---|---|---|---|---|
| 1777836183 | 23.33° C | 28% | 1016.1 hPa | 0 mm | - | 741 W/m² | - |
| 1777835880 | 23.89° C | 27% | 1016.5 hPa | 0 mm | - | 767 W/m² | - |
| 1777835578 | 23.33° C | 27% | 1016.5 hPa | 0 mm | - | 750 W/m² | - |
| 1777835274 | 23.89° C | 27% | 1016.2 hPa | 0 mm | - | 775 W/m² | - |
| 1777834971 | 23.33° C | 29% | 1016.5 hPa | 0 mm | - | 799 W/m² | - |
| 1777834668 | 23.89° C | 27% | 1016.7 hPa | 0 mm | - | 828 W/m² | - |
| 1777834364 | 23.33° C | 27% | 1016.8 hPa | 0 mm | - | 772 W/m² | - |
| 1777834058 | 23.89° C | 27% | 1016.7 hPa | 0 mm | - | 814 W/m² | - |
| 1777833755 | 23.89° C | 26% | 1016.9 hPa | 0 mm | - | 852 W/m² | - |
| 1777833451 | 23.33° C | 28% | 1017.1 hPa | 0 mm | - | 855 W/m² | - |
| 1777833149 | 23.33° C | 29% | 1017 hPa | 0 mm | - | 898 W/m² | - |
| 1777832846 | 23.33° C | 29% | 1017.5 hPa | 0 mm | - | 879 W/m² | - |
| 1777832545 | 22.78° C | 30% | 1017.2 hPa | 0 mm | - | 812 W/m² | - |
| 1777832241 | 23.33° C | 28% | 1017.6 hPa | 0 mm | - | 891 W/m² | - |
| 1777831938 | 23.33° C | 28% | 1017.5 hPa | 0 mm | - | 891 W/m² | - |
| 1777831635 | 23.33° C | 28% | 1017.7 hPa | 0 mm | - | 884 W/m² | - |
| 1777831333 | 22.22° C | 29% | 1017.7 hPa | 0 mm | - | 858 W/m² | - |
| 1777831030 | 22.22° C | 29% | 1017.7 hPa | 0 mm | - | 812 W/m² | - |
| 1777830728 | 22.78° C | 29% | 1017.8 hPa | 0 mm | - | 848 W/m² | - |
| 1777830423 | 22.22° C | 31% | 1017.9 hPa | 0 mm | - | 856 W/m² | - |
| 1777830121 | 22.78° C | 30% | 1018 hPa | 0 mm | - | 850 W/m² | - |
| 1777829816 | 21.67° C | 32% | 1018 hPa | 0 mm | - | 844 W/m² | - |
| 1777829512 | 21.67° C | 31% | 1018.1 hPa | 0 mm | - | 840 W/m² | - |
| 1777829209 | 21.67° C | 32% | 1018.4 hPa | 0 mm | - | 836 W/m² | - |
| 1777828907 | 21.67° C | 30% | 1018.5 hPa | 0 mm | - | 775 W/m² | - |
* Rain latest hour (hover to see other rain measurements)
** Current wind speed in m/s (hover to see current wind gust speed)